Adrian, Illinois
Current Conditions -  °F | °C
As of 8:15 AM on Wednesday 28 Jan 2015 (Local Time) from KFSW Reporting Station
Haze Haze  
Wind Chill: -7°   Ceiling: Unl
Heat Index: -2°   Visibility: 5mi
Dew Point: -3°   Wind: 10mph
Humidity: 93%   Direction: 140°SE
Pressure: 30.15"   Gusts: 18mph
Location:  40.52°N, 91.17°W
Report Text: KFSW 281415Z AUTO 14009G16KT 5SM BR CLR M02/M03 A3015 RMK AO2
Loading
Personal Weather Stations






























Interactive Weather Map New forecast layout! Learn more

10-Day Weather Forecast

Advertisements
Track Severe Weather on mobile